Latest Weather Observations for Coolangatta

IDQ60801

Issued at 3:32 am EST Thursday 2 April 2015 (issued every 30 minutes, with the page automatically refreshed every 10 minutes)

About weather observations | Map of weather stations | Latest weather observations for QLD | Other Formats
Station Details ID: 040717 Name: COOLANGATTA Lat: -28.17 Lon: 153.51 Height: 4.0 m
Data from the previous 72 hours. | See also: Recent months at Coolangatta
Date/Time
EST
Temp
°C
App
Temp
°C
Dew
Point
Rel
Hum
%
Delta-T
°C
Wind Press
QNH
hPa
Press
MSL
hPa
Rain
since 9 am
mm
Dir
 
Spd
km/h
Gust
km/h
Spd
kts
Gust
kts
02/03:30am 19.6 21.2 18.3 92 0.8 SSW 7 9 4 5 1018.3 1018.3 4.2
02/03:00am 19.6 20.8 18.3 92 0.8 SSW 9 13 5 7 1018.4 1018.4 4.2
02/02:30am 19.7 21.0 18.4 92 0.8 SSW 9 13 5 7 1018.8 1018.8 4.2
02/02:00am 19.8 21.2 18.6 93 0.7 SSW 9 11 5 6 1019.1 1019.1 4.2
02/01:30am 19.9 21.8 18.9 94 0.6 SSW 7 9 4 5 1019.5 1019.5 4.2
02/01:00am 19.9 21.7 18.7 93 0.7 SSW 7 11 4 6 1019.8 1019.8 4.2
02/12:50am 19.9 20.9 18.7 93 0.7 SW 11 15 6 8 1019.8 1019.8 4.2
02/12:33am 19.8 21.2 18.6 93 0.7 S 9 11 5 6 1020.2 1020.2 4.2
02/12:30am 19.8 21.2 18.6 93 0.7 S 9 11 5 6 1020.2 1020.2 3.6
02/12:00am 19.8 21.3 18.8 94 0.6 S 9 11 5 6 1020.4 1020.4 3.6
 
Date/Time
EST
Temp
°C
App
Temp
°C
Dew
Point
Rel
Hum
%
Delta-T
°C
Wind Press
QNH
hPa
Press
MSL
hPa
Rain
since 9 am
mm
Dir
 
Spd
km/h
Gust
km/h
Spd
kts
Gust
kts
01/11:30pm 20.1 20.8 18.8 92 0.8 S 13 19 7 10 1020.8 1020.8 3.6
01/11:00pm 20.2 21.7 18.9 92 0.8 S 9 15 5 8 1020.8 1020.8 3.6
01/10:30pm 20.1 22.0 18.9 93 0.8 SW 7 11 4 6 1020.9 1020.9 3.6
01/10:19pm 20.2 21.3 18.9 92 0.8 SSW 11 15 6 8 1021.0 1021.0 3.6
01/10:00pm 19.8 21.6 18.8 94 0.6 WSW 7 11 4 6 1021.1 1021.1 3.4
01/09:58pm 19.8 21.5 18.6 93 0.7 WSW 7 11 4 6 1021.2 1021.2 3.0
01/09:30pm 19.9 20.6 18.9 94 0.6 SW 13 20 7 11 1021.2 1021.2 2.0
01/09:15pm 20.0 21.8 18.8 93 0.8 SW 7 11 4 6 1021.3 1021.3 2.0
01/09:00pm 20.2 20.5 18.7 91 0.9 ESE 15 22 8 12 1021.7 1021.7 1.8
01/08:32pm 20.5 19.0 18.6 89 1.2 E 24 43 13 23 1021.4 1021.4 1.4
01/08:30pm 20.5 19.8 18.6 89 1.2 E 20 43 11 23 1021.3 1021.3 0.8
01/08:29pm 20.6 20.2 18.9 90 1.1 E 19 33 10 18 1021.4 1021.4 0.8
01/08:00pm 19.3 21.0 18.5 95 0.5 SW 7 9 4 5 1020.8 1020.8 0.8
01/07:30pm 19.4 21.1 18.6 95 0.5 SW 7 9 4 5 1020.7 1020.7 0.8
01/07:00pm 19.7 21.2 18.9 95 0.5 SW 9 11 5 6 1020.5 1020.5 0.8
01/06:30pm 19.7 20.3 18.7 94 0.6 WSW 13 17 7 9 1020.2 1020.2 0.8
01/06:00pm 20.0 20.8 19.0 94 0.6 WSW 13 15 7 8 1020.0 1020.0 0.8
01/05:30pm 20.2 21.0 19.0 93 0.8 WSW 13 19 7 10 1019.8 1019.8 0.8
01/05:21pm 20.2 20.6 18.9 92 0.8 SW 15 20 8 11 1019.7 1019.7 0.8
01/05:03pm 20.9 22.9 19.2 90 1.1 W 7 13 4 7 1019.8 1019.8 0.8
01/05:00pm 20.9 22.8 19.0 89 1.2 NW 7 9 4 5 1020.0 1020.0 0.4
01/04:50pm 20.9 22.4 19.0 89 1.2 WNW 9 11 5 6 1019.8 1019.8 0.4
01/04:33pm 21.4 22.9 19.0 86 1.5 N 9 13 5 7 1019.9 1019.9 0.4
01/04:30pm 21.5 22.6 18.9 85 1.6 N 11 17 6 9 1019.9 1019.9 0.2
01/04:18pm 21.6 23.9 19.5 88 1.3 NNE 6 9 3 5 1019.8 1019.8 0.0
01/04:00pm 20.7 19.4 18.1 85 1.6 ESE 22 33 12 18 1020.0 1020.0 0.0
01/03:39pm 21.9 20.1 18.7 82 2.0 E 26 37 14 20 1019.9 1019.9 0.0
01/03:30pm 23.1 20.6 18.0 73 3.2 E 28 37 15 20 1019.6 1019.6 0.0
01/03:00pm 24.5 23.6 17.7 66 4.2 ESE 19 26 10 14 1019.7 1019.7 0.0
01/02:30pm 24.8 23.8 17.5 64 4.6 E 19 26 10 14 1020.0 1020.0 0.0
01/02:00pm 24.5 23.3 17.5 65 4.3 ESE 20 28 11 15 1020.2 1020.2 0.0
01/01:30pm 24.4 22.5 17.6 66 4.2 E 24 33 13 18 1020.7 1020.7 0.0
01/01:18pm 24.3 21.8 18.0 68 4.0 E 28 35 15 19 1020.8 1020.8 0.0
01/01:00pm 23.0 23.9 19.2 79 2.4 SSE 13 17 7 9 1020.9 1020.9 0.0
01/12:30pm 23.0 23.6 18.7 77 2.7 S 13 17 7 9 1021.1 1021.1 0.0
01/12:00pm 22.1 22.3 18.5 80 2.3 S 15 20 8 11 1021.6 1021.6 0.0
01/11:30am 21.9 22.5 18.7 82 2.0 S 13 17 7 9 1022.2 1022.2 0.0
01/11:00am 21.0 20.9 17.8 82 2.0 S 15 22 8 12 1022.9 1022.9 0.0
01/10:30am 21.5 22.4 18.5 83 1.9 S 11 15 6 8 1023.2 1023.2 0.0
01/10:00am 20.7 21.2 18.3 86 1.5 S 13 15 7 8 1023.3 1023.3 0.0
01/09:30am 20.4 20.7 17.8 85 1.6 S 13 24 7 13 1023.6 1023.5 0.0
01/09:00am 19.8 20.6 17.4 86 1.5 SW 9 13 5 7 1023.6 1023.5 66.4
01/08:30am 19.2 19.6 17.2 88 1.2 SW 11 17 6 9 1023.5 1023.4 66.4
01/08:00am 18.9 18.9 17.2 90 1.0 SW 13 17 7 9 1023.3 1023.2 66.2
01/07:30am 18.9 18.6 17.4 91 0.9 S 15 20 8 11 1023.4 1023.3 66.2
01/07:00am 19.0 19.3 17.8 93 0.7 SSW 13 19 7 10 1023.2 1023.1 66.0
01/06:30am 19.2 19.8 18.5 96 0.4 S 13 19 7 10 1022.9 1022.8 65.4
01/06:11am 19.1 18.9 18.4 96 0.4 SW 17 20 9 11 1022.5 1022.4 65.0
01/06:08am 19.1 18.9 18.4 96 0.4 SW 17 20 9 11 1022.5 1022.4 65.0
01/06:00am 19.0 19.1 18.3 96 0.4 SW 15 20 8 11 1022.4 1022.3 64.8
01/05:30am 19.0 19.9 18.3 96 0.4 S 11 19 6 10 1022.1 1022.0 61.2
01/05:27am 19.1 20.0 18.4 96 0.4 S 11 19 6 10 1022.1 1022.0 60.0
01/05:00am 19.1 19.3 18.6 97 0.3 SSW 15 20 8 11 1021.7 1021.6 52.0
01/04:30am 18.9 20.1 18.2 96 0.4 SSW 9 15 5 8 1021.3 1021.2 48.2
01/04:00am 19.0 19.8 18.2 95 0.5 SE 11 19 6 10 1021.3 1021.2 45.4
01/03:34am 18.8 17.8 16.6 87 1.3 E 17 32 9 17 1021.3 1021.2 41.2
01/03:30am 19.3 19.4 18.3 94 0.6 SE 15 24 8 13 1021.3 1021.2 41.0
01/03:00am 19.0 18.7 18.2 95 0.5 S 17 26 9 14 1021.0 1020.9 41.0
01/02:54am 19.0 19.0 18.2 95 0.5 SSW 15 20 8 11 1021.1 1021.0 41.0
01/02:49am 19.1 18.8 18.3 95 0.5 S 17 24 9 13 1021.0 1020.9 41.0
01/02:35am 19.1 19.6 18.4 96 0.4 SSE 13 20 7 11 1021.4 1021.3 40.8
01/02:30am 19.1 19.2 18.4 96 0.4 S 15 20 8 11 1021.3 1021.2 40.4
01/02:00am 18.9 18.9 18.1 95 0.5 S 15 20 8 11 1021.1 1021.0 39.0
01/01:53am 18.8 18.8 18.0 95 0.5 S 15 26 8 14 1021.2 1021.1 37.4
01/01:32am 18.7 18.2 17.7 94 0.6 S 17 22 9 12 1021.5 1021.4 37.0
01/01:30am 18.7 18.2 17.7 94 0.6 S 17 22 9 12 1021.5 1021.4 36.8
01/01:00am 19.3 18.8 18.6 96 0.4 SSE 19 28 10 15 1022.1 1022.0 35.6
01/12:58am 19.4 18.9 18.7 96 0.4 SSE 19 28 10 15 1022.1 1022.0 35.4
01/12:31am 19.2 19.8 18.5 96 0.4 S 13 20 7 11 1022.7 1022.6 26.2
01/12:30am 19.2 19.8 18.5 96 0.4 S 13 20 7 11 1022.7 1022.6 25.6
01/12:02am 19.3 18.9 18.1 93 0.7 SSE 17 24 9 13 1022.6 1022.5 16.6
01/12:00am 19.3 18.9 18.1 93 0.7 SSE 17 24 9 13 1022.6 1022.5 16.6
 
Date/Time
EST
Temp
°C
App
Temp
°C
Dew
Point
Rel
Hum
%
Delta-T
°C
Wind Press
QNH
hPa
Press
MSL
hPa
Rain
since 9 am
mm
Dir
 
Spd
km/h
Gust
km/h
Spd
kts
Gust
kts
31/11:54pm 19.1 18.2 17.8 92 0.8 SSE 19 24 10 13 1022.7 1022.6 16.6
31/11:53pm 19.1 18.3 17.9 93 0.7 SSE 19 30 10 16 1022.7 1022.6 16.6
31/11:30pm 19.4 20.0 18.7 96 0.4 SSE 13 19 7 10 1022.8 1022.7 16.4
31/11:00pm 19.2 18.6 18.5 96 0.4 SSE 19 22 10 12 1023.0 1022.9 14.8
31/10:40pm 19.3 18.7 18.5 95 0.5 SSE 19 24 10 13 1023.1 1023.0 9.4
31/10:30pm 19.4 19.5 18.4 94 0.6 S 15 22 8 12 1023.0 1022.9 3.6
31/10:24pm 19.5 19.6 18.3 93 0.7 S 15 22 8 12 1022.9 1022.8 1.2
31/10:00pm 20.1 21.2 18.8 92 0.8 SSW 11 15 6 8 1023.1 1023.0 1.0
31/09:30pm 20.4 21.9 18.9 91 0.9 SW 9 17 5 9 1022.9 1022.8 1.0
31/09:00pm 20.6 21.5 18.4 87 1.4 SSW 11 17 6 9 1023.0 1022.9 0.8
31/08:30pm 20.7 21.9 18.3 86 1.5 S 9 13 5 7 1022.9 1022.8 0.8
31/08:00pm 21.4 21.0 17.2 77 2.6 SE 15 20 8 11 1022.7 1022.6 0.8
31/07:30pm 21.5 22.1 18.5 83 1.9 ESE 13 17 7 9 1022.7 1022.6 0.8
31/07:00pm 21.3 21.1 18.5 84 1.7 E 17 22 9 12 1022.6 1022.5 0.8
31/06:30pm 21.1 21.5 19.0 88 1.3 E 15 24 8 13 1022.2 1022.1 0.8
31/06:00pm 20.0 22.2 18.3 90 1.1 S 4 9 2 5 1021.9 1021.8 0.8
31/05:47pm 20.3 20.7 18.2 88 1.3 ESE 13 20 7 11 1021.8 1021.7 0.8
31/05:30pm 20.0 18.4 17.4 85 1.6 ESE 22 33 12 18 1021.8 1021.7 0.6
31/05:25pm 20.5 18.4 18.1 86 1.5 ESE 26 43 14 23 1021.7 1021.6 0.2
31/05:20pm 21.6 20.7 17.8 79 2.4 SSE 19 43 10 23 1021.6 1021.5 0.0
31/05:00pm 22.6 23.1 18.4 77 2.6 SSW 13 19 7 10 1021.2 1021.1 0.0
31/04:30pm 23.3 23.9 18.6 75 3.0 SSE 13 19 7 10 1021.0 1020.9 0.0
31/04:00pm 23.5 23.7 18.6 74 3.1 S 15 20 8 11 1020.8 1020.7 0.0
31/03:30pm 24.7 25.1 18.9 70 3.7 SSE 15 20 8 11 1020.8 1020.7 0.0
31/03:00pm 24.4 23.6 18.1 68 3.9 SSE 19 24 10 13 1021.0 1020.9 0.0
31/02:30pm 24.6 23.9 17.3 64 4.5 SE 17 20 9 11 1021.1 1021.0 0.0
31/02:00pm 24.4 25.8 18.6 70 3.7 SSE 9 15 5 8 1021.4 1021.3 0.0
31/01:30pm 24.4 24.2 18.6 70 3.7 S 17 22 9 12 1021.4 1021.3 0.0
31/01:00pm 24.0 24.2 18.6 72 3.4 SSE 15 19 8 10 1021.7 1021.6 0.0
31/12:30pm 23.6 23.6 18.9 75 3.0 S 17 20 9 11 1022.2 1022.1 0.0
31/12:00pm 23.8 23.1 18.2 71 3.5 SSE 19 26 10 14 1022.6 1022.5 0.0
31/11:30am 25.8 24.4 16.6 56 5.7 ESE 19 24 10 13 1022.8 1022.7 0.0
31/11:00am 25.9 25.9 18.1 62 4.9 E 15 22 8 12 1022.9 1022.8 0.0
31/10:30am 25.8 26.6 18.2 63 4.8 ESE 11 19 6 10 1023.3 1023.2 0.0
31/10:00am 24.7 25.8 17.9 66 4.2 SE 9 13 5 7 1023.6 1023.5 0.0
31/09:30am 24.3 25.3 17.8 67 4.1 S 9 13 5 7 1023.8 1023.7 0.0
31/09:00am 23.6 24.7 18.0 71 3.5 S 9 13 5 7 1023.5 1023.4 0.0
31/08:30am 22.4 23.5 18.0 76 2.7 SSE 9 11 5 6 1023.2 1023.1 0.0
31/08:00am 21.6 23.3 18.4 82 2.0 SE 7 11 4 6 1023.2 1023.1 0.0
31/07:30am 20.9 22.7 18.3 85 1.6 SSW 6 7 3 4 1023.1 1023.0 0.0
31/07:00am 20.3 21.9 17.9 86 1.5 SSW 6 7 3 4 1022.6 1022.5 0.0
31/06:30am 19.7 22.4 17.7 88 1.2 CALM 0 0 0 0 1022.1 1022.0 0.0
31/06:00am 19.6 21.1 17.7 89 1.2 SSE 6 7 3 4 1021.8 1021.7 0.0
31/05:30am 19.4 20.7 17.5 89 1.2 SSE 7 9 4 5 1021.6 1021.5 0.0
31/05:00am 19.4 20.9 17.5 89 1.2 SW 6 7 3 4 1021.8 1021.7 0.0
31/04:30am 19.3 20.6 17.6 90 1.0 S 7 7 4 4 1021.6 1021.5 0.0
31/04:00am 19.3 20.8 17.6 90 1.0 SW 6 7 3 4 1021.6 1021.5 0.0
31/03:30am 19.0 20.5 17.5 91 0.9 SSW 6 7 3 4 1021.6 1021.5 0.0
31/03:00am 18.8 20.2 17.3 91 0.9 SSW 6 6 3 3 1021.8 1021.7 0.0
31/02:30am 18.6 19.8 16.9 90 1.0 SSE 6 7 3 4 1022.0 1021.9 0.0
31/02:00am 18.6 19.7 17.1 91 0.9 SW 7 9 4 5 1022.2 1022.1 0.0
31/01:30am 18.6 19.9 17.1 91 0.9 SSW 6 7 3 4 1022.3 1022.2 0.0
31/01:00am 18.6 19.9 17.1 91 0.9 SSW 6 7 3 4 1022.7 1022.6 0.0
31/12:30am 18.5 19.6 17.0 91 0.9 SW 7 9 4 5 1023.0 1022.9 0.0
31/12:00am 18.5 19.8 17.0 91 0.9 SSW 6 9 3 5 1023.0 1022.9 0.0
 
Date/Time
EST
Temp
°C
App
Temp
°C
Dew
Point
Rel
Hum
%
Delta-T
°C
Wind Press
QNH
hPa
Press
MSL
hPa
Rain
since 9 am
mm
Dir
 
Spd
km/h
Gust
km/h
Spd
kts
Gust
kts
30/11:30pm 18.5 19.6 16.7 89 1.1 WSW 6 11 3 6 1023.2 1023.1 0.0
30/11:00pm 18.6 19.8 16.9 90 1.0 S 6 7 3 4 1023.3 1023.2 0.0
30/10:30pm 18.6 20.5 16.6 88 1.2 SSW 2 7 1 4 1023.5 1023.4 0.0
30/10:00pm 19.0 20.1 17.0 88 1.2 SW 7 9 4 5 1023.8 1023.7 0.0
30/09:30pm 19.0 20.6 17.0 88 1.2 WSW 4 7 2 4 1023.9 1023.8 0.0
30/09:00pm 19.2 20.7 16.6 85 1.6 SSW 4 7 2 4 1023.9 1023.8 0.0
30/08:30pm 19.8 20.9 17.0 84 1.7 SSW 7 9 4 5 1023.9 1023.8 0.0
30/08:00pm 19.8 20.4 17.6 87 1.3 WSW 11 13 6 7 1023.7 1023.6 0.0
30/07:30pm 20.2 20.8 17.6 85 1.6 WSW 11 13 6 7 1023.4 1023.3 0.0
30/07:00pm 20.6 21.9 17.6 83 1.8 WSW 7 9 4 5 1023.1 1023.0 0.0
30/06:30pm 22.2 22.4 15.8 67 3.8 ESE 9 13 5 7 1022.7 1022.6 0.0
30/06:00pm 23.1 23.2 15.4 62 4.6 E 9 13 5 7 1022.5 1022.4 0.0
30/05:30pm 23.9 23.3 15.7 60 5.0 E 13 17 7 9 1022.1 1022.0 0.0
30/05:00pm 24.2 24.1 15.9 59 5.0 ENE 11 15 6 8 1022.1 1022.0 0.0
30/04:30pm 24.6 23.6 15.5 57 5.5 ENE 15 19 8 10 1021.6 1021.5 0.0
30/04:00pm 24.8 24.3 16.0 58 5.3 ENE 13 17 7 9 1021.4 1021.3 0.0
30/03:30pm 24.9 24.8 16.1 58 5.4 NE 11 17 6 9 1021.3 1021.2 0.0
30/03:00pm 24.9 24.4 15.8 57 5.5 NNE 13 17 7 9 1021.6 1021.5 0.0
30/02:30pm 25.7 25.2 16.0 55 5.9 NE 13 19 7 10 1021.6 1021.5 0.0
30/02:00pm 25.2 24.5 16.3 57 5.4 NE 15 20 8 11 1021.5 1021.4 0.0
30/01:30pm 25.3 24.1 16.2 57 5.6 NE 17 22 9 12 1021.6 1021.5 0.0
30/01:00pm 25.2 24.0 16.1 57 5.5 NE 17 22 9 12 1022.1 1022.0 0.0
30/12:30pm 25.7 24.6 16.3 56 5.8 NE 17 22 9 12 1022.5 1022.4 0.0
30/12:00pm 26.2 25.1 16.4 54 6.0 NE 17 24 9 13 1023.0 1022.9 0.0
30/11:30am 25.8 24.0 16.1 55 5.9 NE 20 26 11 14 1023.4 1023.3 0.0
30/11:00am 26.1 25.2 16.9 57 5.7 NNE 17 22 9 12 1024.0 1023.9 0.0
30/10:30am 26.3 25.4 16.8 56 5.9 NE 17 20 9 11 1024.4 1024.3 0.0
30/10:00am 25.9 24.9 16.7 57 5.7 NE 17 22 9 12 1024.3 1024.2 0.0
30/09:30am 25.4 24.8 17.6 62 4.9 NE 17 22 9 12 1024.4 1024.3 0.0
30/09:00am 25.3 25.1 17.5 62 4.9 NE 15 19 8 10 1024.3 1024.2 0.0
30/08:30am 25.3 25.7 18.2 64 4.5 ENE 13 20 7 11 1024.2 1024.1 0.0
30/08:00am 23.3 25.2 19.7 80 2.3 WSW 9 11 5 6 1024.1 1024.0 0.0
30/07:30am 22.4 24.1 19.4 83 1.9 SW 9 13 5 7 1023.6 1023.5 0.0
30/07:00am 20.8 23.5 18.6 87 1.4 SSW 2 6 1 3 1023.2 1023.1 0.0
30/06:30am 20.1 21.4 18.4 90 1.1 WSW 9 13 5 7 1023.0 1022.9 0.0
30/06:00am 19.8 21.5 18.1 90 1.0 SW 6 11 3 6 1022.6 1022.5 0.0
30/05:30am 19.8 21.5 18.1 90 1.1 WSW 6 9 3 5 1022.8 1022.7 0.0
30/05:00am 19.9 21.7 18.2 90 1.0 SSW 6 9 3 5 1022.3 1022.2 0.0
30/04:30am 20.2 21.8 18.3 89 1.2 SSW 7 11 4 6 1022.2 1022.1 0.0
30/04:00am 20.1 20.9 18.2 89 1.2 SW 11 15 6 8 1021.8 1021.7 0.0

Other Formats:

Comma delimited format used in spreadsheet applications
http://www.bom.gov.au/fwo/IDQ60801/IDQ60801.94592.axf

JavaScript Object Notation format (JSON) in row-major order
http://www.bom.gov.au/fwo/IDQ60801/IDQ60801.94592.json